createdAt,value
2023-05-15T00:01:26.244Z,19.30
2023-05-15T00:03:55.269Z,17.30
2023-05-15T00:06:23.903Z,17.90
2023-05-15T00:08:52.319Z,19.30
2023-05-15T00:11:21.415Z,17.20
2023-05-15T00:13:50.637Z,16.90
2023-05-15T00:16:19.243Z,15.20
2023-05-15T00:18:47.681Z,15.50
2023-05-15T00:21:17.094Z,13.40
2023-05-15T00:23:47.539Z,13.20
2023-05-15T00:26:15.967Z,14.90
2023-05-15T00:28:44.354Z,13.60
2023-05-15T00:31:14.859Z,13.40
2023-05-15T00:33:43.498Z,13.80
2023-05-15T00:36:11.970Z,13.00
2023-05-15T00:38:40.444Z,12.40
2023-05-15T00:41:10.560Z,11.50
2023-05-15T00:43:40.540Z,11.40
2023-05-15T00:46:09.742Z,9.90
2023-05-15T00:48:39.051Z,9.90
2023-05-15T00:51:07.713Z,10.70
2023-05-15T00:53:36.270Z,12.20
2023-05-15T00:56:06.230Z,11.30
2023-05-15T00:58:35.935Z,9.90
2023-05-15T01:01:06.244Z,10.40
2023-05-15T01:03:35.913Z,10.80
2023-05-15T01:06:04.823Z,10.10
2023-05-15T01:08:46.708Z,10.30
2023-05-15T01:11:18.073Z,10.50
2023-05-15T01:13:47.592Z,12.60
2023-05-15T01:16:15.944Z,11.40
2023-05-15T01:18:44.311Z,11.00
2023-05-15T01:21:40.895Z,10.60
2023-05-15T01:24:29.350Z,10.00
2023-05-15T01:27:30.461Z,11.00
2023-05-15T01:30:05.116Z,10.60
2023-05-15T01:32:39.324Z,11.30
2023-05-15T01:35:39.157Z,10.10
2023-05-15T01:38:19.220Z,9.50
2023-05-15T01:40:51.905Z,9.40
2023-05-15T01:43:27.073Z,9.40
2023-05-15T01:48:28.593Z,8.90
2023-05-15T01:51:03.643Z,9.10
2023-05-15T01:53:34.750Z,10.50
2023-05-15T01:56:04.681Z,7.70
2023-05-15T01:58:34.175Z,9.60
2023-05-15T02:01:03.380Z,9.00
2023-05-15T02:03:36.329Z,7.80
2023-05-15T02:06:06.171Z,8.40
2023-05-15T02:08:34.997Z,8.00
2023-05-15T02:11:03.683Z,8.80
2023-05-15T02:13:33.266Z,9.40
2023-05-15T02:16:01.790Z,8.90
2023-05-15T02:18:30.336Z,7.60
2023-05-15T02:21:01.050Z,7.40
2023-05-15T02:23:29.420Z,7.00
2023-05-15T02:26:21.480Z,6.80
2023-05-15T02:29:07.073Z,6.50
2023-05-15T02:32:05.979Z,6.10
2023-05-15T02:35:04.064Z,5.80
2023-05-15T02:37:36.052Z,5.80
2023-05-15T02:40:07.110Z,5.90
2023-05-15T02:42:36.688Z,6.00
2023-05-15T02:45:07.768Z,4.80
2023-05-15T02:47:37.021Z,5.10
2023-05-15T02:50:07.141Z,5.00
2023-05-15T02:52:35.638Z,5.90
2023-05-15T02:55:04.695Z,4.80
2023-05-15T02:57:33.073Z,4.70
2023-05-15T03:00:02.052Z,3.90
2023-05-15T03:02:30.437Z,4.10
2023-05-15T03:04:58.875Z,4.90
2023-05-15T03:07:27.388Z,4.70
2023-05-15T03:09:55.700Z,5.00
2023-05-15T03:12:23.988Z,5.00
2023-05-15T03:14:52.250Z,4.30
2023-05-15T03:17:20.568Z,4.70
2023-05-15T03:19:48.902Z,5.20
2023-05-15T03:22:17.396Z,5.10
2023-05-15T03:24:45.873Z,5.20
2023-05-15T03:27:14.203Z,5.80
2023-05-15T03:29:43.329Z,6.20
2023-05-15T03:32:11.705Z,5.60
2023-05-15T03:34:41.075Z,5.70
2023-05-15T03:37:09.573Z,5.00
2023-05-15T03:39:37.905Z,5.60
2023-05-15T03:42:06.767Z,8.80
2023-05-15T03:44:35.094Z,6.50
2023-05-15T03:47:03.777Z,6.70
2023-05-15T03:49:32.210Z,5.00
2023-05-15T03:52:00.973Z,6.80
2023-05-15T03:54:29.461Z,7.20
2023-05-15T03:56:57.900Z,6.20
2023-05-15T03:59:26.267Z,6.50
2023-05-15T04:02:04.067Z,7.20
2023-05-15T04:04:33.675Z,6.30
2023-05-15T04:07:02.385Z,6.30
2023-05-15T04:09:30.724Z,6.50
2023-05-15T04:11:59.199Z,6.60
2023-05-15T04:14:27.558Z,7.30
2023-05-15T04:16:56.682Z,6.50
2023-05-15T04:19:24.995Z,6.50
2023-05-15T04:21:53.316Z,6.10
2023-05-15T04:38:16.111Z,7.00
2023-05-15T04:41:33.177Z,6.70
2023-05-15T04:44:01.626Z,5.60
2023-05-15T04:46:30.132Z,6.00
2023-05-15T04:48:58.527Z,6.20
2023-05-15T04:51:26.903Z,5.90
2023-05-15T04:53:55.416Z,6.50
2023-05-15T04:56:23.737Z,5.70
2023-05-15T04:58:52.192Z,6.60
2023-05-15T05:01:20.642Z,6.40
2023-05-15T05:03:49.050Z,5.60
2023-05-15T05:06:17.416Z,5.20
2023-05-15T05:08:45.704Z,6.00
2023-05-15T05:11:14.091Z,5.60
2023-05-15T05:13:42.639Z,5.70
2023-05-15T05:16:11.161Z,24.70
2023-05-15T05:30:56.021Z,6.30
2023-05-15T05:33:24.413Z,5.30
2023-05-15T05:35:52.868Z,5.50
2023-05-15T05:38:21.236Z,5.60
2023-05-15T05:40:51.059Z,5.30
2023-05-15T05:44:06.345Z,5.80
2023-05-15T06:04:26.987Z,6.80
2023-05-15T06:06:56.731Z,5.10
2023-05-15T06:09:29.573Z,6.10
2023-05-15T06:12:01.920Z,5.90
2023-05-15T06:14:32.501Z,6.20
2023-05-15T06:17:08.127Z,5.40
2023-05-15T06:19:36.700Z,5.90
2023-05-15T06:22:05.348Z,6.20
2023-05-15T06:24:33.928Z,6.40
2023-05-15T06:27:02.247Z,5.60
2023-05-15T06:29:30.823Z,7.10
2023-05-15T06:32:00.057Z,5.90
2023-05-15T06:34:28.691Z,6.60
2023-05-15T06:36:57.179Z,6.20
2023-05-15T06:39:26.908Z,6.10
2023-05-15T06:41:59.271Z,6.70
2023-05-15T06:44:28.672Z,6.70
2023-05-15T06:47:02.389Z,6.80
2023-05-15T06:49:30.826Z,7.10
2023-05-15T06:51:59.218Z,6.30
2023-05-15T06:54:28.199Z,6.80
2023-05-15T06:57:03.967Z,6.60
2023-05-15T07:02:26.800Z,6.60
2023-05-15T07:04:57.129Z,7.00
2023-05-15T07:07:25.767Z,7.50
2023-05-15T07:09:54.270Z,6.90
2023-05-15T07:12:23.190Z,6.30
2023-05-15T07:14:51.709Z,7.30
2023-05-15T07:17:20.152Z,6.50
2023-05-15T07:19:49.305Z,6.80
2023-05-15T07:22:17.689Z,6.50
2023-05-15T07:24:45.986Z,7.30
2023-05-15T07:27:14.545Z,7.30
2023-05-15T07:29:42.926Z,7.00
2023-05-15T07:32:11.313Z,7.00
2023-05-15T07:34:39.897Z,6.10
2023-05-15T07:40:10.265Z,6.00
2023-05-15T07:42:39.835Z,6.90
2023-05-15T07:45:09.392Z,5.60
2023-05-15T07:47:38.905Z,7.10
2023-05-15T07:50:08.579Z,7.30
2023-05-15T07:52:37.096Z,7.00
2023-05-15T07:55:19.079Z,7.40
2023-05-15T07:57:53.589Z,6.20
2023-05-15T08:00:23.297Z,6.30
2023-05-15T08:02:51.901Z,6.30
2023-05-15T08:05:20.968Z,6.30
2023-05-15T08:07:49.306Z,5.80
2023-05-15T08:10:18.217Z,6.20
2023-05-15T08:13:27.949Z,6.10
2023-05-15T08:16:03.686Z,5.60
2023-05-15T08:18:32.122Z,7.10
2023-05-15T08:21:02.845Z,5.30
2023-05-15T08:23:32.300Z,5.70
2023-05-15T08:26:00.704Z,5.10
2023-05-15T08:28:29.193Z,4.20
2023-05-15T08:30:57.656Z,5.20
2023-05-15T08:33:25.999Z,5.60
2023-05-15T08:36:05.749Z,5.40
2023-05-15T08:38:41.318Z,5.30
2023-05-15T08:41:40.532Z,5.90
2023-05-15T08:44:11.327Z,6.30
2023-05-15T08:46:40.210Z,7.00
2023-05-15T08:49:55.125Z,6.30
2023-05-15T08:52:25.736Z,6.20
2023-05-15T08:54:54.870Z,7.10
2023-05-15T08:57:41.488Z,6.80
2023-05-15T09:00:14.615Z,6.00
2023-05-15T09:03:04.139Z,6.60
2023-05-15T09:05:34.426Z,6.50
2023-05-15T09:08:17.575Z,6.70
2023-05-15T09:10:53.185Z,6.30
2023-05-15T09:13:36.692Z,7.00
2023-05-15T09:16:27.453Z,7.00
2023-05-15T09:19:05.502Z,6.40
2023-05-15T09:21:34.811Z,6.90
2023-05-15T09:24:25.759Z,6.10
2023-05-15T09:27:09.264Z,6.80
2023-05-15T09:29:39.906Z,6.90
2023-05-15T09:32:11.822Z,6.10
2023-05-15T09:34:59.899Z,6.20
2023-05-15T09:37:35.414Z,7.10
2023-05-15T09:40:09.700Z,6.40
2023-05-15T09:42:38.794Z,6.90
2023-05-15T09:45:17.991Z,7.10
2023-05-15T09:47:47.935Z,7.30
2023-05-15T09:50:24.083Z,6.60
2023-05-15T09:52:53.443Z,7.40
2023-05-15T09:55:27.625Z,8.20
2023-05-15T09:58:18.894Z,7.70
2023-05-15T10:00:51.541Z,7.00
2023-05-15T10:03:21.097Z,6.80
2023-05-15T10:05:52.246Z,6.90
2023-05-15T10:08:29.777Z,7.10
2023-05-15T10:11:04.209Z,8.20
2023-05-15T10:13:34.615Z,7.40
2023-05-15T10:16:14.375Z,7.40
2023-05-15T10:18:47.538Z,7.80
2023-05-15T10:21:23.416Z,7.00
2023-05-15T10:23:55.716Z,7.60
2023-05-15T10:26:39.778Z,6.70
2023-05-15T10:29:22.101Z,5.70
2023-05-15T10:32:07.935Z,7.10
2023-05-15T10:34:39.789Z,6.80
2023-05-15T10:37:09.904Z,5.70
2023-05-15T10:39:44.231Z,6.50
2023-05-15T10:42:13.757Z,4.90
2023-05-15T10:44:42.512Z,6.00
2023-05-15T10:47:12.097Z,6.00
2023-05-15T10:49:45.214Z,5.80
2023-05-15T10:52:14.036Z,6.10
2023-05-15T10:54:43.793Z,5.80
2023-05-15T10:57:15.004Z,5.10
2023-05-15T10:59:44.641Z,5.70
2023-05-15T11:02:21.428Z,5.90
2023-05-15T11:05:03.747Z,7.40
2023-05-15T11:07:37.297Z,5.10
2023-05-15T11:13:27.308Z,4.20
2023-05-15T11:15:57.900Z,5.70
2023-05-15T11:18:31.233Z,6.40
2023-05-15T11:21:16.811Z,5.60
2023-05-15T11:24:08.214Z,5.30
2023-05-15T11:26:45.371Z,6.70
2023-05-15T11:29:35.565Z,6.30
2023-05-15T11:32:04.233Z,4.90
2023-05-15T11:34:41.652Z,5.30
2023-05-15T11:37:18.500Z,4.90
2023-05-15T11:39:51.723Z,5.70
2023-05-15T11:42:20.124Z,4.80
2023-05-15T11:44:49.231Z,3.90
2023-05-15T11:47:21.515Z,4.10
2023-05-15T11:50:07.011Z,4.00
2023-05-15T11:52:37.524Z,4.60
2023-05-15T11:55:08.288Z,4.30
2023-05-15T11:57:39.531Z,4.10
2023-05-15T12:00:11.497Z,4.60
2023-05-15T12:02:44.611Z,5.00
2023-05-15T12:05:13.812Z,5.30
2023-05-15T12:07:43.746Z,5.10
2023-05-15T12:10:13.991Z,5.10
2023-05-15T12:12:46.399Z,3.90
2023-05-15T12:15:17.353Z,8.00
2023-05-15T12:17:46.807Z,3.20
2023-05-15T12:20:19.417Z,3.60
2023-05-15T12:22:47.777Z,4.30
2023-05-15T12:25:17.636Z,4.70
2023-05-15T12:27:46.310Z,5.00
2023-05-15T12:30:21.295Z,4.30
2023-05-15T12:35:19.097Z,4.00
2023-05-15T12:37:47.528Z,4.20
2023-05-15T12:40:21.548Z,4.40
2023-05-15T12:42:54.996Z,3.50
2023-05-15T12:45:24.220Z,2.80
2023-05-15T12:47:53.035Z,3.00
2023-05-15T12:50:22.837Z,3.20
2023-05-15T12:52:57.131Z,3.00
2023-05-15T12:55:32.027Z,2.70
2023-05-15T12:58:11.769Z,2.80
2023-05-15T13:00:46.239Z,3.10
2023-05-15T13:03:15.998Z,3.50
2023-05-15T13:05:45.665Z,2.60
2023-05-15T13:08:17.825Z,2.90
2023-05-15T13:10:56.125Z,5.40
2023-05-15T13:13:24.840Z,2.90
2023-05-15T13:15:54.220Z,3.10
2023-05-15T13:18:40.621Z,3.30
2023-05-15T13:21:09.028Z,3.00
2023-05-15T13:23:37.383Z,3.50
2023-05-15T13:26:06.212Z,2.40
2023-05-15T13:28:34.864Z,2.10
2023-05-15T13:31:03.345Z,3.30
2023-05-15T13:33:34.933Z,5.00
2023-05-15T13:36:04.847Z,2.30
2023-05-15T13:38:33.716Z,2.00
2023-05-15T13:41:02.113Z,2.50
2023-05-15T13:43:30.518Z,2.30
2023-05-15T13:45:59.099Z,1.50
2023-05-15T13:48:27.530Z,2.10
2023-05-15T13:50:57.674Z,1.80
2023-05-15T13:53:26.954Z,2.50
2023-05-15T13:55:57.385Z,1.90
2023-05-15T13:58:26.763Z,2.90
2023-05-15T14:00:55.281Z,2.10
2023-05-15T14:03:23.783Z,3.00
2023-05-15T14:05:52.899Z,3.40
2023-05-15T14:08:21.274Z,4.30
2023-05-15T14:10:52.533Z,2.20
2023-05-15T14:13:21.101Z,3.40
2023-05-15T14:15:49.516Z,2.40
2023-05-15T14:18:17.978Z,2.30
2023-05-15T14:20:46.343Z,2.30
2023-05-15T14:23:19.755Z,2.70
2023-05-15T14:25:48.247Z,2.90
2023-05-15T14:28:16.582Z,2.90
2023-05-15T14:30:45.035Z,2.90
2023-05-15T14:33:13.452Z,3.00
2023-05-15T14:35:41.970Z,3.70
2023-05-15T14:38:10.245Z,3.60
2023-05-15T14:40:38.571Z,3.70
2023-05-15T14:43:07.518Z,3.40
2023-05-15T14:45:36.028Z,3.00
2023-05-15T14:48:04.713Z,3.40
2023-05-15T14:50:33.297Z,3.40
2023-05-15T14:53:01.646Z,4.50
2023-05-15T14:55:30.141Z,3.50
2023-05-15T14:57:58.636Z,3.70
2023-05-15T15:00:27.492Z,3.00
2023-05-15T15:03:07.780Z,3.90
2023-05-15T15:05:47.025Z,6.00
2023-05-15T15:08:20.211Z,4.50
2023-05-15T15:10:53.893Z,3.80
2023-05-15T15:13:24.478Z,4.40
2023-05-15T15:16:00.744Z,3.70
2023-05-15T15:18:30.360Z,3.50
2023-05-15T15:20:58.809Z,5.10
2023-05-15T15:23:35.113Z,6.30
2023-05-15T15:26:06.170Z,7.40
2023-05-15T15:28:50.120Z,7.20
2023-05-15T15:31:22.474Z,8.40
2023-05-15T15:33:51.528Z,9.00
2023-05-15T15:36:19.876Z,9.60
2023-05-15T15:38:50.452Z,9.60
2023-05-15T15:41:21.665Z,9.50
2023-05-15T15:43:50.748Z,8.70
2023-05-15T15:46:19.283Z,9.40
2023-05-15T15:48:48.742Z,9.50
2023-05-15T15:51:17.200Z,8.50
2023-05-15T15:53:45.628Z,8.90
2023-05-15T15:56:14.059Z,8.30
2023-05-15T15:58:42.420Z,8.40
2023-05-15T16:01:10.917Z,7.90
2023-05-15T16:03:39.273Z,7.40
2023-05-15T16:06:08.015Z,6.90
2023-05-15T16:08:36.559Z,7.80
2023-05-15T16:11:04.994Z,7.90
2023-05-15T16:13:33.392Z,7.70
2023-05-15T16:16:01.859Z,7.70
2023-05-15T16:18:30.390Z,8.50
2023-05-15T16:21:06.956Z,14.30
2023-05-15T16:23:37.263Z,8.90
2023-05-15T16:26:06.239Z,9.10
2023-05-15T16:28:35.545Z,8.70
2023-05-15T16:31:04.821Z,7.80
2023-05-15T16:33:33.830Z,7.70
2023-05-15T16:36:05.101Z,8.70
2023-05-15T16:38:33.734Z,8.10
2023-05-15T16:41:02.264Z,7.70
2023-05-15T16:43:30.678Z,6.50
2023-05-15T16:45:59.159Z,6.40
2023-05-15T16:48:28.065Z,7.70
2023-05-15T16:50:56.717Z,5.80
2023-05-15T16:53:25.051Z,6.00
2023-05-15T16:55:53.629Z,4.50
2023-05-15T16:58:22.076Z,6.00
2023-05-15T17:00:50.414Z,4.80
2023-05-15T17:03:19.301Z,4.80
2023-05-15T17:13:22.431Z,5.90
2023-05-15T17:15:51.204Z,5.40
2023-05-15T17:18:19.621Z,5.70
2023-05-15T17:20:48.021Z,5.50
2023-05-15T17:23:16.376Z,4.90
2023-05-15T17:25:44.878Z,6.00
2023-05-15T17:28:13.287Z,5.30
2023-05-15T17:30:42.464Z,5.50
2023-05-15T17:33:10.943Z,5.90
2023-05-15T17:35:39.673Z,6.70
2023-05-15T17:38:08.869Z,6.30
2023-05-15T17:40:37.283Z,7.20
2023-05-15T17:43:09.839Z,6.70
2023-05-15T17:46:24.932Z,6.00
2023-05-15T17:49:26.235Z,6.10
2023-05-15T17:51:56.045Z,5.80
2023-05-15T17:54:26.015Z,6.60
2023-05-15T17:56:55.698Z,6.80
2023-05-15T17:59:24.673Z,6.60
2023-05-15T18:01:53.968Z,6.80
2023-05-15T18:04:22.975Z,6.80
2023-05-15T18:06:52.133Z,6.50
2023-05-15T18:09:24.209Z,9.10
2023-05-15T18:11:53.411Z,6.90
2023-05-15T18:14:22.898Z,7.50
2023-05-15T18:16:51.657Z,8.50
2023-05-15T18:19:21.419Z,6.60
2023-05-15T18:21:50.339Z,6.90
2023-05-15T18:24:19.487Z,7.70
2023-05-15T18:26:49.446Z,7.70
2023-05-15T18:29:18.312Z,7.90
2023-05-15T18:31:48.367Z,9.10
2023-05-15T18:34:16.800Z,9.00
2023-05-15T18:36:47.178Z,10.60
2023-05-15T18:39:19.014Z,10.00
2023-05-15T18:41:48.170Z,11.30
2023-05-15T18:44:18.541Z,10.20
2023-05-15T18:46:47.011Z,8.90
2023-05-15T18:49:18.043Z,35.10
2023-05-15T18:51:46.467Z,15.70
2023-05-15T18:54:14.797Z,11.20
2023-05-15T18:56:43.329Z,14.40
2023-05-15T18:59:11.751Z,11.80
2023-05-15T19:01:40.957Z,11.70
2023-05-15T19:04:09.473Z,22.30
2023-05-15T19:06:37.936Z,99.80
2023-05-15T19:09:06.241Z,41.20
2023-05-15T19:11:34.593Z,76.40
2023-05-15T19:14:02.951Z,28.30
2023-05-15T19:16:32.121Z,10.00
2023-05-15T19:19:00.557Z,10.00
2023-05-15T19:21:29.375Z,10.70
2023-05-15T19:23:57.846Z,10.80
2023-05-15T19:26:28.466Z,9.70
2023-05-15T19:28:56.866Z,9.10
2023-05-15T19:31:31.447Z,9.90
2023-05-15T19:34:01.037Z,9.40
2023-05-15T19:36:29.484Z,11.50
2023-05-15T19:38:58.015Z,11.00
2023-05-15T19:41:26.560Z,11.80
2023-05-15T19:43:55.048Z,11.20
2023-05-15T19:46:23.694Z,9.90
2023-05-15T19:48:52.155Z,11.10
2023-05-15T19:51:20.696Z,27.20
2023-05-15T19:53:48.991Z,18.60
2023-05-15T19:56:17.506Z,14.00
2023-05-15T19:58:45.847Z,12.00
2023-05-15T20:01:14.578Z,10.70
2023-05-15T20:03:43.139Z,10.60
2023-05-15T20:06:14.478Z,11.60
2023-05-15T20:08:43.452Z,10.90
2023-05-15T20:11:11.816Z,12.40
2023-05-15T20:13:40.158Z,15.70
2023-05-15T20:16:10.486Z,29.70
2023-05-15T20:18:40.041Z,26.30
2023-05-15T20:21:08.472Z,46.00
2023-05-15T20:23:37.246Z,28.10
2023-05-15T20:26:05.849Z,14.40
2023-05-15T20:28:34.479Z,12.30
2023-05-15T20:31:03.089Z,11.80
2023-05-15T20:33:31.728Z,11.30
2023-05-15T20:36:00.571Z,12.20
2023-05-15T20:38:29.038Z,11.10
2023-05-15T20:40:57.612Z,13.00
2023-05-15T20:43:26.134Z,10.30
2023-05-15T20:45:57.476Z,10.00
2023-05-15T20:48:25.990Z,11.50
2023-05-15T20:50:54.353Z,13.80
2023-05-15T20:53:22.941Z,34.30
2023-05-15T20:55:51.310Z,14.00
2023-05-15T20:58:19.681Z,12.00
2023-05-15T21:00:48.045Z,13.10
2023-05-15T21:03:16.618Z,10.50
2023-05-15T21:05:45.075Z,11.10
2023-05-15T21:08:13.903Z,10.10
2023-05-15T21:10:42.363Z,12.40
2023-05-15T21:13:10.859Z,9.80
2023-05-15T21:15:39.192Z,10.30
2023-05-15T21:18:07.889Z,8.90
2023-05-15T21:20:36.264Z,9.90
2023-05-15T21:23:04.599Z,9.50
2023-05-15T21:25:33.234Z,11.20
2023-05-15T21:28:04.840Z,9.40
2023-05-15T21:30:33.536Z,9.70
2023-05-15T21:33:01.941Z,10.70
2023-05-15T21:35:31.791Z,10.10
2023-05-15T21:38:00.445Z,10.00
2023-05-15T21:40:29.239Z,9.50
2023-05-15T21:42:57.620Z,9.50
2023-05-15T21:45:25.920Z,9.90
2023-05-15T21:47:54.313Z,9.00
2023-05-15T21:50:22.687Z,10.20
2023-05-15T21:52:51.632Z,9.90
2023-05-15T21:55:20.067Z,9.70
2023-05-15T21:57:48.478Z,12.90
2023-05-15T22:00:17.363Z,11.10
2023-05-15T22:02:45.767Z,20.90
2023-05-15T22:05:14.808Z,10.30
2023-05-15T22:07:44.217Z,10.70
2023-05-15T22:10:16.615Z,10.60
2023-05-15T22:12:46.396Z,10.00
2023-05-15T22:15:14.964Z,9.40
2023-05-15T22:17:43.385Z,11.70
2023-05-15T22:20:13.335Z,11.10
2023-05-15T22:22:43.046Z,11.30
2023-05-15T22:25:12.227Z,10.60
2023-05-15T22:27:41.116Z,9.00
2023-05-15T22:30:09.813Z,10.10
2023-05-15T22:32:38.503Z,11.10
2023-05-15T22:35:11.480Z,12.30
2023-05-15T22:37:42.004Z,11.20
2023-05-15T22:40:11.343Z,12.50
2023-05-15T22:42:39.678Z,12.10
2023-05-15T22:45:09.322Z,15.20
2023-05-15T22:47:37.765Z,12.20
2023-05-15T22:50:07.760Z,12.10
2023-05-15T22:52:38.213Z,12.40
2023-05-15T22:55:07.492Z,13.40
2023-05-15T22:57:35.821Z,13.70
2023-05-15T23:00:07.152Z,13.50
2023-05-15T23:02:38.451Z,16.00
2023-05-15T23:05:07.331Z,14.00
2023-05-15T23:07:35.701Z,16.00
2023-05-15T23:10:04.421Z,14.80
2023-05-15T23:12:32.842Z,14.60
2023-05-15T23:15:01.702Z,16.10
2023-05-15T23:17:30.092Z,14.40
2023-05-15T23:19:58.525Z,15.30
2023-05-15T23:22:26.793Z,15.80
2023-05-15T23:24:55.673Z,16.40
2023-05-15T23:27:24.102Z,16.80
2023-05-15T23:29:52.482Z,15.70
2023-05-15T23:32:21.061Z,15.90
2023-05-15T23:34:49.474Z,16.50
2023-05-15T23:37:17.822Z,16.10
2023-05-15T23:39:46.230Z,15.40
2023-05-15T23:42:15.033Z,14.70
2023-05-15T23:44:44.010Z,15.00
2023-05-15T23:47:12.453Z,16.00
2023-05-15T23:49:41.456Z,17.00
2023-05-15T23:52:10.033Z,16.00
2023-05-15T23:54:38.675Z,17.60
2023-05-15T23:57:07.120Z,14.90
2023-05-15T23:59:36.270Z,15.30
